sensor_id;sensor_type;location;lat;lon;timestamp;P1;P2;P0
80289;PMS7003;69592;44.804;-0.550;2023-06-14T00:01:45;15.33;14.33;11.00
80289;PMS7003;69592;44.804;-0.550;2023-06-14T00:04:12;15.67;15.67;11.00
80289;PMS7003;69592;44.804;-0.550;2023-06-14T00:06:38;16.67;15.67;10.00
80289;PMS7003;69592;44.804;-0.550;2023-06-14T00:09:04;14.00;14.00;10.00
80289;PMS7003;69592;44.804;-0.550;2023-06-14T00:11:30;13.00;12.33;8.33
80289;PMS7003;69592;44.804;-0.550;2023-06-14T00:13:56;14.00;14.00;10.67
80289;PMS7003;69592;44.804;-0.550;2023-06-14T00:16:21;13.67;12.00;9.00
80289;PMS7003;69592;44.804;-0.550;2023-06-14T00:18:47;16.00;14.67;11.67
80289;PMS7003;69592;44.804;-0.550;2023-06-14T00:21:13;13.00;12.33;9.00
80289;PMS7003;69592;44.804;-0.550;2023-06-14T00:23:39;13.33;12.33;9.00
80289;PMS7003;69592;44.804;-0.550;2023-06-14T00:26:04;13.67;13.67;10.00
80289;PMS7003;69592;44.804;-0.550;2023-06-14T00:28:30;12.67;12.00;8.00
80289;PMS7003;69592;44.804;-0.550;2023-06-14T00:30:55;17.33;16.00;10.33
80289;PMS7003;69592;44.804;-0.550;2023-06-14T00:33:21;13.67;12.33;9.67
80289;PMS7003;69592;44.804;-0.550;2023-06-14T00:35:46;14.67;14.33;11.00
80289;PMS7003;69592;44.804;-0.550;2023-06-14T00:38:12;14.33;14.33;8.33
80289;PMS7003;69592;44.804;-0.550;2023-06-14T00:40:37;14.67;13.33;10.00
80289;PMS7003;69592;44.804;-0.550;2023-06-14T00:43:03;13.00;13.00;9.67
80289;PMS7003;69592;44.804;-0.550;2023-06-14T00:45:28;14.33;14.33;10.00
80289;PMS7003;69592;44.804;-0.550;2023-06-14T00:47:53;13.00;13.00;10.00
80289;PMS7003;69592;44.804;-0.550;2023-06-14T00:50:20;10.33;9.33;7.00
80289;PMS7003;69592;44.804;-0.550;2023-06-14T00:52:48;11.00;11.00;9.00
80289;PMS7003;69592;44.804;-0.550;2023-06-14T00:55:13;13.33;13.33;10.00
80289;PMS7003;69592;44.804;-0.550;2023-06-14T00:57:39;12.67;12.67;10.00
80289;PMS7003;69592;44.804;-0.550;2023-06-14T01:00:05;13.00;13.00;9.67
80289;PMS7003;69592;44.804;-0.550;2023-06-14T01:02:38;13.00;13.00;10.67
80289;PMS7003;69592;44.804;-0.550;2023-06-14T01:05:04;11.00;10.67;9.00
80289;PMS7003;69592;44.804;-0.550;2023-06-14T01:07:43;15.67;14.00;10.33
80289;PMS7003;69592;44.804;-0.550;2023-06-14T01:10:27;15.33;15.00;11.00
80289;PMS7003;69592;44.804;-0.550;2023-06-14T01:13:12;14.00;12.00;9.00
80289;PMS7003;69592;44.804;-0.550;2023-06-14T01:15:53;18.00;15.33;10.33
80289;PMS7003;69592;44.804;-0.550;2023-06-14T01:18:20;14.67;12.33;10.00
80289;PMS7003;69592;44.804;-0.550;2023-06-14T01:20:49;11.33;11.33;9.67
80289;PMS7003;69592;44.804;-0.550;2023-06-14T01:23:15;15.00;14.33;10.00
80289;PMS7003;69592;44.804;-0.550;2023-06-14T01:25:42;13.33;12.67;9.00
80289;PMS7003;69592;44.804;-0.550;2023-06-14T01:28:09;12.00;12.00;10.00
80289;PMS7003;69592;44.804;-0.550;2023-06-14T01:30:40;15.33;15.00;10.00
80289;PMS7003;69592;44.804;-0.550;2023-06-14T01:33:13;13.00;11.00;8.00
80289;PMS7003;69592;44.804;-0.550;2023-06-14T01:35:44;16.33;14.67;10.67
80289;PMS7003;69592;44.804;-0.550;2023-06-14T01:38:12;14.00;12.00;9.67
80289;PMS7003;69592;44.804;-0.550;2023-06-14T01:40:39;17.67;15.33;11.33
80289;PMS7003;69592;44.804;-0.550;2023-06-14T01:43:05;20.33;16.67;11.00
80289;PMS7003;69592;44.804;-0.550;2023-06-14T01:45:32;14.00;14.00;9.67
80289;PMS7003;69592;44.804;-0.550;2023-06-14T01:47:59;14.67;14.33;11.00
80289;PMS7003;69592;44.804;-0.550;2023-06-14T01:50:27;15.33;13.67;10.67
80289;PMS7003;69592;44.804;-0.550;2023-06-14T01:52:55;15.67;15.67;12.67
80289;PMS7003;69592;44.804;-0.550;2023-06-14T01:55:20;15.33;15.00;11.67
80289;PMS7003;69592;44.804;-0.550;2023-06-14T01:57:46;14.67;14.00;8.67
80289;PMS7003;69592;44.804;-0.550;2023-06-14T02:00:12;14.67;13.00;10.00
80289;PMS7003;69592;44.804;-0.550;2023-06-14T02:02:39;13.33;12.33;9.00
80289;PMS7003;69592;44.804;-0.550;2023-06-14T02:05:05;12.33;12.33;10.00
80289;PMS7003;69592;44.804;-0.550;2023-06-14T02:07:31;14.67;13.00;9.33
80289;PMS7003;69592;44.804;-0.550;2023-06-14T02:09:56;17.00;15.67;11.00
80289;PMS7003;69592;44.804;-0.550;2023-06-14T02:12:21;15.00;13.33;10.00
80289;PMS7003;69592;44.804;-0.550;2023-06-14T02:14:47;16.00;13.00;9.33
80289;PMS7003;69592;44.804;-0.550;2023-06-14T02:17:13;14.67;14.67;10.33
80289;PMS7003;69592;44.804;-0.550;2023-06-14T02:19:39;14.33;13.00;8.33
80289;PMS7003;69592;44.804;-0.550;2023-06-14T02:22:05;16.00;15.00;10.67
80289;PMS7003;69592;44.804;-0.550;2023-06-14T02:24:31;14.33;13.33;8.33
80289;PMS7003;69592;44.804;-0.550;2023-06-14T02:26:56;18.00;16.00;10.00
80289;PMS7003;69592;44.804;-0.550;2023-06-14T02:29:21;13.00;12.67;10.00
80289;PMS7003;69592;44.804;-0.550;2023-06-14T02:31:47;12.67;12.33;9.33
80289;PMS7003;69592;44.804;-0.550;2023-06-14T02:34:13;14.67;14.67;9.00
80289;PMS7003;69592;44.804;-0.550;2023-06-14T02:36:41;14.33;14.00;9.00
80289;PMS7003;69592;44.804;-0.550;2023-06-14T02:39:07;16.33;15.33;11.33
80289;PMS7003;69592;44.804;-0.550;2023-06-14T02:41:34;11.67;9.67;7.00
80289;PMS7003;69592;44.804;-0.550;2023-06-14T02:44:00;12.00;11.67;8.33
80289;PMS7003;69592;44.804;-0.550;2023-06-14T02:46:25;15.00;14.67;9.67
80289;PMS7003;69592;44.804;-0.550;2023-06-14T02:48:50;17.33;13.00;9.67
80289;PMS7003;69592;44.804;-0.550;2023-06-14T02:51:16;20.33;16.00;9.67
80289;PMS7003;69592;44.804;-0.550;2023-06-14T02:53:41;15.00;15.00;10.67
80289;PMS7003;69592;44.804;-0.550;2023-06-14T02:56:06;13.33;11.67;8.00
80289;PMS7003;69592;44.804;-0.550;2023-06-14T02:58:32;10.67;10.67;9.00
80289;PMS7003;69592;44.804;-0.550;2023-06-14T03:00:58;16.67;16.33;11.33
80289;PMS7003;69592;44.804;-0.550;2023-06-14T03:03:28;12.33;12.33;9.00
80289;PMS7003;69592;44.804;-0.550;2023-06-14T03:05:54;13.33;13.33;9.00
80289;PMS7003;69592;44.804;-0.550;2023-06-14T03:08:21;15.33;12.33;9.00
80289;PMS7003;69592;44.804;-0.550;2023-06-14T03:10:52;10.00;9.67;8.33
80289;PMS7003;69592;44.804;-0.550;2023-06-14T03:13:18;13.00;13.00;8.67
80289;PMS7003;69592;44.804;-0.550;2023-06-14T03:15:47;15.33;15.00;11.00
80289;PMS7003;69592;44.804;-0.550;2023-06-14T03:18:15;14.33;13.33;9.00
80289;PMS7003;69592;44.804;-0.550;2023-06-14T03:20:41;15.67;15.00;10.67
80289;PMS7003;69592;44.804;-0.550;2023-06-14T03:23:07;12.67;11.33;7.67
80289;PMS7003;69592;44.804;-0.550;2023-06-14T03:25:33;16.00;14.00;9.00
80289;PMS7003;69592;44.804;-0.550;2023-06-14T03:28:00;14.67;13.33;9.67
80289;PMS7003;69592;44.804;-0.550;2023-06-14T03:30:26;11.67;11.67;8.67
80289;PMS7003;69592;44.804;-0.550;2023-06-14T03:32:51;13.33;13.33;10.00
80289;PMS7003;69592;44.804;-0.550;2023-06-14T03:35:17;15.33;15.33;11.33
80289;PMS7003;69592;44.804;-0.550;2023-06-14T03:37:44;13.33;12.33;8.00
80289;PMS7003;69592;44.804;-0.550;2023-06-14T03:40:10;15.67;10.67;8.67
80289;PMS7003;69592;44.804;-0.550;2023-06-14T03:42:36;13.67;13.67;10.33
80289;PMS7003;69592;44.804;-0.550;2023-06-14T03:45:02;14.00;14.00;10.33
80289;PMS7003;69592;44.804;-0.550;2023-06-14T03:47:27;16.00;15.00;9.00
80289;PMS7003;69592;44.804;-0.550;2023-06-14T03:49:53;19.00;13.33;9.00
80289;PMS7003;69592;44.804;-0.550;2023-06-14T03:52:18;17.00;14.67;11.00
80289;PMS7003;69592;44.804;-0.550;2023-06-14T03:54:43;14.00;13.67;9.67
80289;PMS7003;69592;44.804;-0.550;2023-06-14T03:57:09;17.00;15.00;11.00
80289;PMS7003;69592;44.804;-0.550;2023-06-14T03:59:35;14.00;13.33;8.00
80289;PMS7003;69592;44.804;-0.550;2023-06-14T04:02:01;13.00;13.00;8.67
80289;PMS7003;69592;44.804;-0.550;2023-06-14T04:04:27;14.00;14.00;11.33
80289;PMS7003;69592;44.804;-0.550;2023-06-14T04:06:54;13.33;13.33;9.00
80289;PMS7003;69592;44.804;-0.550;2023-06-14T04:09:21;15.00;15.00;10.33
80289;PMS7003;69592;44.804;-0.550;2023-06-14T04:11:47;17.00;14.67;12.00
80289;PMS7003;69592;44.804;-0.550;2023-06-14T04:14:13;19.00;15.00;10.00
80289;PMS7003;69592;44.804;-0.550;2023-06-14T04:16:38;15.00;14.00;9.50
80289;PMS7003;69592;44.804;-0.550;2023-06-14T04:19:03;19.00;16.00;11.00
80289;PMS7003;69592;44.804;-0.550;2023-06-14T04:21:29;13.33;13.00;9.00
80289;PMS7003;69592;44.804;-0.550;2023-06-14T04:23:54;14.67;13.67;9.67
80289;PMS7003;69592;44.804;-0.550;2023-06-14T04:26:20;17.00;15.00;9.33
80289;PMS7003;69592;44.804;-0.550;2023-06-14T04:28:48;14.00;12.67;9.33
80289;PMS7003;69592;44.804;-0.550;2023-06-14T04:31:14;16.00;15.00;11.67
80289;PMS7003;69592;44.804;-0.550;2023-06-14T04:33:41;14.67;14.33;9.00
80289;PMS7003;69592;44.804;-0.550;2023-06-14T04:36:11;15.67;15.33;9.67
80289;PMS7003;69592;44.804;-0.550;2023-06-14T04:38:38;18.67;16.67;12.33
80289;PMS7003;69592;44.804;-0.550;2023-06-14T04:41:04;16.33;14.33;9.00
80289;PMS7003;69592;44.804;-0.550;2023-06-14T04:43:29;15.33;13.67;8.00
80289;PMS7003;69592;44.804;-0.550;2023-06-14T04:45:56;17.33;15.00;10.67
80289;PMS7003;69592;44.804;-0.550;2023-06-14T04:48:22;16.00;14.33;10.00
80289;PMS7003;69592;44.804;-0.550;2023-06-14T04:50:47;13.00;13.00;8.33
80289;PMS7003;69592;44.804;-0.550;2023-06-14T04:53:13;18.00;17.33;11.67
80289;PMS7003;69592;44.804;-0.550;2023-06-14T04:55:38;16.67;15.33;11.00
80289;PMS7003;69592;44.804;-0.550;2023-06-14T04:58:04;18.00;17.00;12.33
80289;PMS7003;69592;44.804;-0.550;2023-06-14T05:00:30;16.00;15.00;10.67
80289;PMS7003;69592;44.804;-0.550;2023-06-14T05:02:55;17.33;15.33;9.67
80289;PMS7003;69592;44.804;-0.550;2023-06-14T05:05:22;16.00;15.67;11.00
80289;PMS7003;69592;44.804;-0.550;2023-06-14T05:07:47;17.67;16.00;10.00
80289;PMS7003;69592;44.804;-0.550;2023-06-14T05:10:13;17.33;17.33;13.00
80289;PMS7003;69592;44.804;-0.550;2023-06-14T05:12:38;20.33;19.00;13.67
80289;PMS7003;69592;44.804;-0.550;2023-06-14T05:15:04;15.00;15.00;10.00
80289;PMS7003;69592;44.804;-0.550;2023-06-14T05:17:29;20.00;18.00;13.00
80289;PMS7003;69592;44.804;-0.550;2023-06-14T05:19:55;14.67;14.67;9.00
80289;PMS7003;69592;44.804;-0.550;2023-06-14T05:22:21;19.00;19.00;11.33
80289;PMS7003;69592;44.804;-0.550;2023-06-14T05:24:46;16.67;16.33;11.33
80289;PMS7003;69592;44.804;-0.550;2023-06-14T05:27:13;13.33;13.33;9.00
80289;PMS7003;69592;44.804;-0.550;2023-06-14T05:29:38;19.00;18.00;13.00
80289;PMS7003;69592;44.804;-0.550;2023-06-14T05:32:04;19.00;17.00;12.33
80289;PMS7003;69592;44.804;-0.550;2023-06-14T05:34:30;17.00;17.00;13.33
80289;PMS7003;69592;44.804;-0.550;2023-06-14T05:36:55;19.00;18.33;13.67
80289;PMS7003;69592;44.804;-0.550;2023-06-14T05:39:20;21.00;18.67;12.33
80289;PMS7003;69592;44.804;-0.550;2023-06-14T05:41:46;19.00;17.67;13.00
80289;PMS7003;69592;44.804;-0.550;2023-06-14T05:44:11;19.00;18.00;13.00
80289;PMS7003;69592;44.804;-0.550;2023-06-14T05:46:36;18.00;18.00;11.00
80289;PMS7003;69592;44.804;-0.550;2023-06-14T05:49:02;19.33;18.00;12.33
80289;PMS7003;69592;44.804;-0.550;2023-06-14T05:51:27;15.67;15.33;11.00
80289;PMS7003;69592;44.804;-0.550;2023-06-14T05:53:52;19.00;18.00;10.00
80289;PMS7003;69592;44.804;-0.550;2023-06-14T05:56:18;23.00;19.67;12.00
80289;PMS7003;69592;44.804;-0.550;2023-06-14T05:58:44;17.67;12.33;10.00
80289;PMS7003;69592;44.804;-0.550;2023-06-14T06:01:10;17.67;13.00;10.00
80289;PMS7003;69592;44.804;-0.550;2023-06-14T06:03:36;19.67;17.00;12.33
80289;PMS7003;69592;44.804;-0.550;2023-06-14T06:06:01;20.67;17.00;11.67
80289;PMS7003;69592;44.804;-0.550;2023-06-14T06:08:28;21.00;19.33;15.33
80289;PMS7003;69592;44.804;-0.550;2023-06-14T06:10:53;20.67;20.67;13.33
80289;PMS7003;69592;44.804;-0.550;2023-06-14T06:13:20;20.00;18.33;12.00
80289;PMS7003;69592;44.804;-0.550;2023-06-14T06:15:45;20.00;18.67;13.33
80289;PMS7003;69592;44.804;-0.550;2023-06-14T06:18:11;18.67;18.00;12.67
80289;PMS7003;69592;44.804;-0.550;2023-06-14T06:20:36;19.00;19.00;12.00
80289;PMS7003;69592;44.804;-0.550;2023-06-14T06:23:02;24.33;22.00;13.67
80289;PMS7003;69592;44.804;-0.550;2023-06-14T06:25:27;19.67;18.33;12.67
80289;PMS7003;69592;44.804;-0.550;2023-06-14T06:27:54;22.33;21.00;15.33
80289;PMS7003;69592;44.804;-0.550;2023-06-14T06:30:23;24.00;21.67;14.67
80289;PMS7003;69592;44.804;-0.550;2023-06-14T06:32:50;19.33;18.67;13.00
80289;PMS7003;69592;44.804;-0.550;2023-06-14T06:35:15;22.33;19.67;12.33
80289;PMS7003;69592;44.804;-0.550;2023-06-14T06:37:41;19.00;18.33;13.00
80289;PMS7003;69592;44.804;-0.550;2023-06-14T06:40:07;25.67;23.67;16.00
80289;PMS7003;69592;44.804;-0.550;2023-06-14T06:42:33;20.00;18.00;14.33
80289;PMS7003;69592;44.804;-0.550;2023-06-14T06:44:59;23.00;20.33;13.00
80289;PMS7003;69592;44.804;-0.550;2023-06-14T06:47:24;19.67;17.67;13.67
80289;PMS7003;69592;44.804;-0.550;2023-06-14T06:49:50;23.33;22.33;15.00
80289;PMS7003;69592;44.804;-0.550;2023-06-14T06:52:16;22.00;20.00;13.33
80289;PMS7003;69592;44.804;-0.550;2023-06-14T06:54:41;22.33;19.00;14.00
80289;PMS7003;69592;44.804;-0.550;2023-06-14T06:57:06;17.00;15.33;12.33
80289;PMS7003;69592;44.804;-0.550;2023-06-14T06:59:36;18.67;18.67;14.00
80289;PMS7003;69592;44.804;-0.550;2023-06-14T07:02:01;24.00;22.33;17.00
80289;PMS7003;69592;44.804;-0.550;2023-06-14T07:04:26;24.67;21.67;15.00
80289;PMS7003;69592;44.804;-0.550;2023-06-14T07:06:52;19.67;19.67;15.33
80289;PMS7003;69592;44.804;-0.550;2023-06-14T07:09:17;21.67;21.67;13.67
80289;PMS7003;69592;44.804;-0.550;2023-06-14T07:11:44;20.33;19.33;14.00
80289;PMS7003;69592;44.804;-0.550;2023-06-14T07:14:10;22.67;22.33;15.67
80289;PMS7003;69592;44.804;-0.550;2023-06-14T07:16:36;22.67;22.67;17.00
80289;PMS7003;69592;44.804;-0.550;2023-06-14T07:19:02;24.00;23.00;15.67
80289;PMS7003;69592;44.804;-0.550;2023-06-14T07:21:28;27.00;24.33;17.00
80289;PMS7003;69592;44.804;-0.550;2023-06-14T07:23:54;26.00;24.67;16.00
80289;PMS7003;69592;44.804;-0.550;2023-06-14T07:26:19;22.67;22.33;16.67
80289;PMS7003;69592;44.804;-0.550;2023-06-14T07:28:46;21.00;21.00;16.00
80289;PMS7003;69592;44.804;-0.550;2023-06-14T07:31:12;25.33;25.33;18.33
80289;PMS7003;69592;44.804;-0.550;2023-06-14T07:33:38;24.67;24.00;18.00
80289;PMS7003;69592;44.804;-0.550;2023-06-14T07:36:04;24.00;22.33;16.33
80289;PMS7003;69592;44.804;-0.550;2023-06-14T07:38:29;18.00;18.00;13.00
80289;PMS7003;69592;44.804;-0.550;2023-06-14T07:40:55;22.67;22.67;17.00
80289;PMS7003;69592;44.804;-0.550;2023-06-14T07:43:20;24.67;23.67;17.33
80289;PMS7003;69592;44.804;-0.550;2023-06-14T07:45:45;21.33;20.00;14.67
80289;PMS7003;69592;44.804;-0.550;2023-06-14T07:48:11;24.00;23.00;14.33
80289;PMS7003;69592;44.804;-0.550;2023-06-14T07:50:36;21.00;20.00;13.67
80289;PMS7003;69592;44.804;-0.550;2023-06-14T07:53:02;25.00;23.00;16.33
80289;PMS7003;69592;44.804;-0.550;2023-06-14T07:55:27;23.33;20.67;13.67
80289;PMS7003;69592;44.804;-0.550;2023-06-14T07:57:53;25.33;24.33;17.00
80289;PMS7003;69592;44.804;-0.550;2023-06-14T08:00:19;26.00;26.00;18.33
80289;PMS7003;69592;44.804;-0.550;2023-06-14T08:02:45;23.33;23.00;16.00
80289;PMS7003;69592;44.804;-0.550;2023-06-14T08:05:11;22.67;21.33;15.00
80289;PMS7003;69592;44.804;-0.550;2023-06-14T08:07:37;25.33;25.33;17.33
80289;PMS7003;69592;44.804;-0.550;2023-06-14T08:10:04;26.00;23.67;16.33
80289;PMS7003;69592;44.804;-0.550;2023-06-14T08:12:32;20.67;19.33;15.00
80289;PMS7003;69592;44.804;-0.550;2023-06-14T08:14:58;23.33;23.33;16.33
80289;PMS7003;69592;44.804;-0.550;2023-06-14T08:17:23;19.33;19.33;16.00
80289;PMS7003;69592;44.804;-0.550;2023-06-14T08:19:50;21.00;20.67;15.00
80289;PMS7003;69592;44.804;-0.550;2023-06-14T08:22:15;25.33;21.33;17.00
80289;PMS7003;69592;44.804;-0.550;2023-06-14T08:24:43;18.33;16.00;13.67
80289;PMS7003;69592;44.804;-0.550;2023-06-14T08:27:09;22.67;22.67;15.33
80289;PMS7003;69592;44.804;-0.550;2023-06-14T08:29:35;21.00;20.67;15.00
80289;PMS7003;69592;44.804;-0.550;2023-06-14T08:32:00;22.33;20.33;16.33
80289;PMS7003;69592;44.804;-0.550;2023-06-14T08:34:26;24.00;22.00;15.33
80289;PMS7003;69592;44.804;-0.550;2023-06-14T08:36:52;24.33;24.33;17.00
80289;PMS7003;69592;44.804;-0.550;2023-06-14T08:39:17;25.67;25.67;18.33
80289;PMS7003;69592;44.804;-0.550;2023-06-14T08:41:46;22.00;22.00;17.00
80289;PMS7003;69592;44.804;-0.550;2023-06-14T08:44:18;26.33;21.00;15.33
80289;PMS7003;69592;44.804;-0.550;2023-06-14T08:46:47;24.67;23.67;16.00
80289;PMS7003;69592;44.804;-0.550;2023-06-14T08:49:13;23.33;22.33;16.67
80289;PMS7003;69592;44.804;-0.550;2023-06-14T08:51:42;23.67;23.00;16.33
80289;PMS7003;69592;44.804;-0.550;2023-06-14T08:54:08;24.00;24.00;17.67
80289;PMS7003;69592;44.804;-0.550;2023-06-14T08:56:37;23.67;22.67;14.33
80289;PMS7003;69592;44.804;-0.550;2023-06-14T08:59:03;18.67;17.67;11.33
80289;PMS7003;69592;44.804;-0.550;2023-06-14T09:01:35;21.33;21.00;15.00
80289;PMS7003;69592;44.804;-0.550;2023-06-14T09:04:02;20.67;20.67;14.33
80289;PMS7003;69592;44.804;-0.550;2023-06-14T09:06:30;21.67;21.00;13.00
80289;PMS7003;69592;44.804;-0.550;2023-06-14T09:08:56;27.00;24.67;16.33
80289;PMS7003;69592;44.804;-0.550;2023-06-14T09:11:22;16.33;16.00;9.33
80289;PMS7003;69592;44.804;-0.550;2023-06-14T09:13:48;18.67;18.67;14.00
80289;PMS7003;69592;44.804;-0.550;2023-06-14T09:16:14;21.25;20.25;14.75
80289;PMS7003;69592;44.804;-0.550;2023-06-14T09:18:43;18.25;18.25;13.00
80289;PMS7003;69592;44.804;-0.550;2023-06-14T09:21:14;22.33;21.33;16.33
80289;PMS7003;69592;44.804;-0.550;2023-06-14T09:23:42;20.25;20.25;14.00
80289;PMS7003;69592;44.804;-0.550;2023-06-14T09:26:13;23.00;21.50;15.50
80289;PMS7003;69592;44.804;-0.550;2023-06-14T09:31:09;15.75;14.50;11.00
80289;PMS7003;69592;44.804;-0.550;2023-06-14T09:33:36;16.25;16.25;13.25
80289;PMS7003;69592;44.804;-0.550;2023-06-14T09:36:01;18.75;18.75;13.50
80289;PMS7003;69592;44.804;-0.550;2023-06-14T09:38:28;17.75;16.50;13.00
80289;PMS7003;69592;44.804;-0.550;2023-06-14T09:40:55;19.25;17.75;14.25
80289;PMS7003;69592;44.804;-0.550;2023-06-14T09:43:22;17.25;16.50;11.75
80289;PMS7003;69592;44.804;-0.550;2023-06-14T09:45:48;18.25;18.00;14.25
80289;PMS7003;69592;44.804;-0.550;2023-06-14T09:48:15;19.75;19.75;16.00
80289;PMS7003;69592;44.804;-0.550;2023-06-14T09:50:44;16.75;16.75;13.00
80289;PMS7003;69592;44.804;-0.550;2023-06-14T09:53:11;17.75;17.25;13.00
80289;PMS7003;69592;44.804;-0.550;2023-06-14T09:55:37;18.25;16.50;12.25
80289;PMS7003;69592;44.804;-0.550;2023-06-14T09:58:05;16.75;16.75;12.25
80289;PMS7003;69592;44.804;-0.550;2023-06-14T10:00:32;16.25;16.25;10.25
80289;PMS7003;69592;44.804;-0.550;2023-06-14T10:03:11;15.50;15.00;11.75
80289;PMS7003;69592;44.804;-0.550;2023-06-14T10:05:38;11.00;11.00;10.00
80289;PMS7003;69592;44.804;-0.550;2023-06-14T10:08:10;19.00;16.25;12.50
80289;PMS7003;69592;44.804;-0.550;2023-06-14T10:10:41;13.50;13.50;11.00
80289;PMS7003;69592;44.804;-0.550;2023-06-14T10:13:08;15.80;15.80;12.00
80289;PMS7003;69592;44.804;-0.550;2023-06-14T10:21:13;8.75;8.75;8.25
80289;PMS7003;69592;44.804;-0.550;2023-06-14T10:23:48;15.20;15.20;12.20
80289;PMS7003;69592;44.804;-0.550;2023-06-14T10:26:22;17.20;15.80;12.20
80289;PMS7003;69592;44.804;-0.550;2023-06-14T10:29:21;15.75;15.50;11.00
80289;PMS7003;69592;44.804;-0.550;2023-06-14T10:31:44;16.25;16.25;12.00
80289;PMS7003;69592;44.804;-0.550;2023-06-14T10:34:29;15.20;15.20;12.20
80289;PMS7003;69592;44.804;-0.550;2023-06-14T10:37:02;18.00;18.00;12.80
80289;PMS7003;69592;44.804;-0.550;2023-06-14T10:39:29;17.00;16.25;12.00
80289;PMS7003;69592;44.804;-0.550;2023-06-14T10:41:56;14.75;14.00;11.25
80289;PMS7003;69592;44.804;-0.550;2023-06-14T10:46:48;12.50;12.50;9.75
80289;PMS7003;69592;44.804;-0.550;2023-06-14T10:49:36;13.00;13.00;10.00
80289;PMS7003;69592;44.804;-0.550;2023-06-14T10:52:14;12.40;12.40;9.20
80289;PMS7003;69592;44.804;-0.550;2023-06-14T10:57:24;13.20;13.00;10.20
80289;PMS7003;69592;44.804;-0.550;2023-06-14T10:59:50;14.50;13.75;10.00
80289;PMS7003;69592;44.804;-0.550;2023-06-14T11:04:51;17.60;13.80;10.60
80289;PMS7003;69592;44.804;-0.550;2023-06-14T11:13:03;8.00;6.40;5.20
80289;PMS7003;69592;44.804;-0.550;2023-06-14T11:15:30;8.40;8.20;7.00
80289;PMS7003;69592;44.804;-0.550;2023-06-14T11:17:56;14.60;13.40;10.60
80289;PMS7003;69592;44.804;-0.550;2023-06-14T11:20:24;11.20;11.20;8.00
80289;PMS7003;69592;44.804;-0.550;2023-06-14T11:22:51;11.00;11.00;9.40
80289;PMS7003;69592;44.804;-0.550;2023-06-14T11:25:17;10.00;10.00;8.00
80289;PMS7003;69592;44.804;-0.550;2023-06-14T11:27:42;9.25;9.25;7.75
80289;PMS7003;69592;44.804;-0.550;2023-06-14T11:30:08;10.50;10.50;8.00
80289;PMS7003;69592;44.804;-0.550;2023-06-14T11:32:35;11.20;11.20;9.60
80289;PMS7003;69592;44.804;-0.550;2023-06-14T11:35:01;10.40;10.40;8.80
80289;PMS7003;69592;44.804;-0.550;2023-06-14T11:37:27;11.00;11.00;9.20
80289;PMS7003;69592;44.804;-0.550;2023-06-14T11:40:01;8.20;8.20;6.20
80289;PMS7003;69592;44.804;-0.550;2023-06-14T11:42:33;10.60;10.60;9.20
80289;PMS7003;69592;44.804;-0.550;2023-06-14T11:44:59;9.20;9.20;8.00
80289;PMS7003;69592;44.804;-0.550;2023-06-14T11:47:30;11.75;11.75;10.00
80289;PMS7003;69592;44.804;-0.550;2023-06-14T11:49:58;11.20;11.20;9.60
80289;PMS7003;69592;44.804;-0.550;2023-06-14T11:52:23;13.20;12.00;9.40
80289;PMS7003;69592;44.804;-0.550;2023-06-14T11:54:49;8.75;8.75;7.75
80289;PMS7003;69592;44.804;-0.550;2023-06-14T11:57:15;9.00;9.00;6.75
80289;PMS7003;69592;44.804;-0.550;2023-06-14T11:59:43;11.60;11.60;8.00
80289;PMS7003;69592;44.804;-0.550;2023-06-14T12:02:09;13.00;9.60;6.80
80289;PMS7003;69592;44.804;-0.550;2023-06-14T12:04:40;11.20;11.20;8.00
80289;PMS7003;69592;44.804;-0.550;2023-06-14T12:07:09;12.20;11.20;8.00
80289;PMS7003;69592;44.804;-0.550;2023-06-14T12:09:42;8.60;7.20;6.20
80289;PMS7003;69592;44.804;-0.550;2023-06-14T12:12:17;10.40;10.40;8.80
80289;PMS7003;69592;44.804;-0.550;2023-06-14T12:14:42;13.75;13.75;9.75
80289;PMS7003;69592;44.804;-0.550;2023-06-14T12:17:08;10.50;9.00;7.00
80289;PMS7003;69592;44.804;-0.550;2023-06-14T12:19:33;11.50;11.00;10.00
80289;PMS7003;69592;44.804;-0.550;2023-06-14T12:22:06;11.80;11.80;9.60
80289;PMS7003;69592;44.804;-0.550;2023-06-14T12:24:34;10.80;10.20;8.00
80289;PMS7003;69592;44.804;-0.550;2023-06-14T12:27:00;8.75;8.75;7.00
80289;PMS7003;69592;44.804;-0.550;2023-06-14T12:29:27;9.60;9.60;8.00
80289;PMS7003;69592;44.804;-0.550;2023-06-14T12:31:53;11.25;11.00;7.00
80289;PMS7003;69592;44.804;-0.550;2023-06-14T12:34:21;11.80;10.60;7.00
80289;PMS7003;69592;44.804;-0.550;2023-06-14T12:36:47;11.25;11.25;9.75
80289;PMS7003;69592;44.804;-0.550;2023-06-14T12:39:12;7.75;7.75;6.25
80289;PMS7003;69592;44.804;-0.550;2023-06-14T12:41:38;10.75;10.00;8.00
80289;PMS7003;69592;44.804;-0.550;2023-06-14T12:44:06;13.60;12.40;8.60
80289;PMS7003;69592;44.804;-0.550;2023-06-14T12:46:31;9.00;9.00;7.75
80289;PMS7003;69592;44.804;-0.550;2023-06-14T12:48:57;9.75;9.75;8.75
80289;PMS7003;69592;44.804;-0.550;2023-06-14T12:51:22;14.25;12.75;7.50
80289;PMS7003;69592;44.804;-0.550;2023-06-14T12:53:48;9.50;9.50;6.75
80289;PMS7003;69592;44.804;-0.550;2023-06-14T12:56:14;12.25;11.00;8.25
80289;PMS7003;69592;44.804;-0.550;2023-06-14T12:58:40;13.40;12.60;10.00
80289;PMS7003;69592;44.804;-0.550;2023-06-14T13:01:06;12.00;11.25;9.00
80289;PMS7003;69592;44.804;-0.550;2023-06-14T13:03:32;11.50;10.00;8.75
80289;PMS7003;69592;44.804;-0.550;2023-06-14T13:05:58;10.40;10.40;8.80
80289;PMS7003;69592;44.804;-0.550;2023-06-14T13:08:24;9.25;9.25;7.25
80289;PMS7003;69592;44.804;-0.550;2023-06-14T13:10:49;11.50;11.50;9.00
80289;PMS7003;69592;44.804;-0.550;2023-06-14T13:13:15;10.75;9.75;7.00
80289;PMS7003;69592;44.804;-0.550;2023-06-14T13:15:40;10.50;9.00;7.00
80289;PMS7003;69592;44.804;-0.550;2023-06-14T13:18:05;8.50;7.25;6.00
80289;PMS7003;69592;44.804;-0.550;2023-06-14T13:20:31;6.50;6.00;6.00
80289;PMS7003;69592;44.804;-0.550;2023-06-14T13:22:56;11.50;11.50;9.50
80289;PMS7003;69592;44.804;-0.550;2023-06-14T13:25:22;12.50;11.00;9.25
80289;PMS7003;69592;44.804;-0.550;2023-06-14T13:27:47;11.50;11.25;9.00
80289;PMS7003;69592;44.804;-0.550;2023-06-14T13:30:13;5.00;5.00;4.00
80289;PMS7003;69592;44.804;-0.550;2023-06-14T13:32:39;10.40;9.40;6.40
80289;PMS7003;69592;44.804;-0.550;2023-06-14T13:35:05;13.25;11.00;9.75
80289;PMS7003;69592;44.804;-0.550;2023-06-14T13:37:30;11.25;9.00;7.50
80289;PMS7003;69592;44.804;-0.550;2023-06-14T13:39:56;13.00;13.00;9.00
80289;PMS7003;69592;44.804;-0.550;2023-06-14T13:42:21;12.50;12.25;9.00
80289;PMS7003;69592;44.804;-0.550;2023-06-14T13:44:47;13.00;12.00;9.25
80289;PMS7003;69592;44.804;-0.550;2023-06-14T13:47:12;9.00;8.25;6.00
80289;PMS7003;69592;44.804;-0.550;2023-06-14T13:49:38;9.50;7.00;5.00
80289;PMS7003;69592;44.804;-0.550;2023-06-14T13:52:03;11.25;11.25;8.00
80289;PMS7003;69592;44.804;-0.550;2023-06-14T13:54:29;14.25;13.25;10.50
80289;PMS7003;69592;44.804;-0.550;2023-06-14T13:56:54;11.50;11.00;8.75
80289;PMS7003;69592;44.804;-0.550;2023-06-14T13:59:20;9.75;9.75;7.75
80289;PMS7003;69592;44.804;-0.550;2023-06-14T14:01:45;12.00;12.00;10.00